Time;durP1;ratioP1;P1;durP2;ratioP2;P2;SDS_P1;SDS_P2;PMS_P1;PMS_P2;Temp;Humidity;BMP_temperature;BMP_pressure;BME280_temperature;BME280_humidity;BME280_pressure;Samples;Min_cycle;Max_cycle;Signal;HPM_P1;HPM_P2
2022/05/18 00:00:49;;;;;;;6.70;4.50;;;;;;;;;;759899;183;637928;-62
2022/05/18 00:03:16;;;;;;;4.93;3.67;;;;;;;;;;760372;183;918593;-63
2022/05/18 00:05:42;;;;;;;5.00;4.50;;;;;;;;;;755060;185;918626;-61
2022/05/18 00:08:08;;;;;;;5.73;5.03;;;;;;;;;;756382;184;918953;-62
2022/05/18 00:10:33;;;;;;;20.30;6.07;;;;;;;;;;753583;183;923078;-62
2022/05/18 00:12:59;;;;;;;43.20;8.33;;;;;;;;;;759850;183;920479;-62
2022/05/18 00:15:25;;;;;;;8.40;5.80;;;;;;;;;;766934;184;919483;-62
2022/05/18 00:17:51;;;;;;;10.27;5.57;;;;;;;;;;759694;184;919115;-62
2022/05/18 00:20:18;;;;;;;9.30;5.27;;;;;;;;;;753127;184;919362;-62
2022/05/18 00:22:43;;;;;;;9.57;5.37;;;;;;;;;;759337;184;919515;-62
2022/05/18 00:25:09;;;;;;;8.50;5.80;;;;;;;;;;758125;184;916761;-62
2022/05/18 00:27:35;;;;;;;8.60;5.87;;;;;;;;;;759955;183;919842;-62
2022/05/18 00:30:00;;;;;;;9.43;5.73;;;;;;;;;;766594;183;918941;-62
2022/05/18 00:32:26;;;;;;;9.38;5.25;;;;;;;;;;753421;184;916313;-62
2022/05/18 00:34:52;;;;;;;6.53;5.63;;;;;;;;;;757444;183;916639;-62
2022/05/18 00:37:18;;;;;;;130.37;14.37;;;;;;;;;;760636;183;919748;-61
2022/05/18 00:39:44;;;;;;;99.87;12.00;;;;;;;;;;765263;183;919585;-62
2022/05/18 00:42:16;;;;;;;6.77;4.70;;;;;;;;;;760660;183;920274;-62
2022/05/18 00:44:42;;;;;;;5.87;4.17;;;;;;;;;;760055;184;919312;-62
2022/05/18 00:47:07;;;;;;;5.87;4.43;;;;;;;;;;769272;181;919396;-62
2022/05/18 00:49:33;;;;;;;10.80;5.10;;;;;;;;;;765119;183;919326;-62
2022/05/18 00:51:59;;;;;;;7.07;5.47;;;;;;;;;;761434;183;919633;-62
2022/05/18 00:54:25;;;;;;;6.77;4.93;;;;;;;;;;758896;184;920585;-60
2022/05/18 00:56:54;;;;;;;6.80;4.80;;;;;;;;;;765659;183;919607;-62
2022/05/18 00:59:20;;;;;;;6.13;4.07;;;;;;;;;;755101;183;918659;-62
2022/05/18 01:01:46;;;;;;;6.00;4.20;;;;;;;;;;751503;186;915388;-61
2022/05/18 01:04:12;;;;;;;5.17;4.37;;;;;;;;;;764123;183;920359;-62
2022/05/18 01:06:40;;;;;;;6.03;4.93;;;;;;;;;;762270;183;917428;-63
2022/05/18 01:09:07;;;;;;;6.67;4.77;;;;;;;;;;759483;183;918783;-63
2022/05/18 01:11:33;;;;;;;11.20;4.40;;;;;;;;;;761282;183;919267;-62
2022/05/18 01:13:59;;;;;;;6.90;4.90;;;;;;;;;;766301;183;919499;-62
2022/05/18 01:16:25;;;;;;;7.60;5.87;;;;;;;;;;761062;183;919663;-62
2022/05/18 01:18:50;;;;;;;8.33;5.50;;;;;;;;;;756469;184;919719;-62
2022/05/18 01:21:16;;;;;;;7.30;5.40;;;;;;;;;;766015;183;946392;-60
2022/05/18 01:23:43;;;;;;;11.25;5.95;;;;;;;;;;758299;183;919752;-61
2022/05/18 01:26:10;;;;;;;7.07;5.10;;;;;;;;;;749197;185;919521;-62
2022/05/18 01:28:36;;;;;;;9.40;4.87;;;;;;;;;;757159;183;919303;-63
2022/05/18 01:31:04;;;;;;;5.00;4.10;;;;;;;;;;754076;184;1022050;-64
2022/05/18 01:33:28;;;;;;;12.73;4.47;;;;;;;;;;749507;184;919926;-61
2022/05/18 01:35:54;;;;;;;6.10;4.20;;;;;;;;;;757369;184;919126;-61
2022/05/18 01:38:20;;;;;;;6.23;4.53;;;;;;;;;;758501;186;918561;-62
2022/05/18 01:40:46;;;;;;;5.10;3.80;;;;;;;;;;758231;184;919968;-61
2022/05/18 01:43:27;;;;;;;5.68;3.97;;;;;;;;;;757713;184;919447;-62
2022/05/18 01:45:53;;;;;;;6.97;4.43;;;;;;;;;;755180;186;919035;-61
2022/05/18 01:48:19;;;;;;;6.97;4.87;;;;;;;;;;762359;184;918805;-62
2022/05/18 01:50:44;;;;;;;6.63;4.93;;;;;;;;;;765330;183;633632;-61
2022/05/18 01:53:10;;;;;;;8.63;4.63;;;;;;;;;;760839;183;919494;-61
2022/05/18 01:55:36;;;;;;;6.80;4.10;;;;;;;;;;758428;185;919216;-61
2022/05/18 01:58:02;;;;;;;6.20;4.57;;;;;;;;;;755475;184;917704;-62
2022/05/18 02:00:28;;;;;;;7.43;4.20;;;;;;;;;;763679;183;937586;-61
2022/05/18 02:02:54;;;;;;;7.33;4.53;;;;;;;;;;764117;183;918723;-61
2022/05/18 02:05:20;;;;;;;5.73;4.73;;;;;;;;;;763014;184;918749;-62
2022/05/18 02:07:45;;;;;;;8.73;5.57;;;;;;;;;;760522;183;919398;-61
2022/05/18 02:10:11;;;;;;;11.57;6.70;;;;;;;;;;762244;183;927057;-61
2022/05/18 02:12:37;;;;;;;11.87;9.27;;;;;;;;;;767362;183;920341;-62
2022/05/18 02:15:04;;;;;;;15.80;8.50;;;;;;;;;;757390;183;919552;-61
2022/05/18 02:17:30;;;;;;;12.93;9.00;;;;;;;;;;759993;183;919683;-60
2022/05/18 02:19:56;;;;;;;13.87;9.17;;;;;;;;;;764133;183;920107;-60
2022/05/18 02:22:21;;;;;;;10.70;8.80;;;;;;;;;;754925;183;919396;-61
2022/05/18 02:24:47;;;;;;;16.85;8.25;;;;;;;;;;754728;184;901291;-61
2022/05/18 02:27:13;;;;;;;15.17;9.67;;;;;;;;;;766839;184;919391;-61
2022/05/18 02:29:38;;;;;;;13.83;8.13;;;;;;;;;;761038;183;1022305;-61
2022/05/18 02:32:05;;;;;;;10.97;7.43;;;;;;;;;;756880;184;919642;-61
2022/05/18 02:34:31;;;;;;;12.70;7.67;;;;;;;;;;756551;183;919125;-61
2022/05/18 02:36:57;;;;;;;14.90;7.70;;;;;;;;;;764546;184;918608;-61
2022/05/18 02:39:22;;;;;;;10.30;6.95;;;;;;;;;;760600;184;928294;-60
2022/05/18 02:41:48;;;;;;;11.47;7.60;;;;;;;;;;755249;184;944685;-61
2022/05/18 02:44:14;;;;;;;13.03;8.20;;;;;;;;;;768183;183;629077;-61
2022/05/18 02:46:40;;;;;;;13.07;8.10;;;;;;;;;;761365;183;620975;-61
2022/05/18 02:49:06;;;;;;;9.20;6.80;;;;;;;;;;759228;183;920965;-60
2022/05/18 02:51:32;;;;;;;13.37;7.87;;;;;;;;;;761800;183;921797;-60
2022/05/18 02:53:58;;;;;;;10.60;7.28;;;;;;;;;;752343;184;917691;-61
2022/05/18 02:56:24;;;;;;;13.60;7.23;;;;;;;;;;756652;183;939712;-60
2022/05/18 02:58:50;;;;;;;20.73;7.80;;;;;;;;;;755787;183;920471;-60
2022/05/18 03:01:18;;;;;;;10.00;7.63;;;;;;;;;;755563;184;918551;-60
2022/05/18 03:03:45;;;;;;;17.27;8.17;;;;;;;;;;757415;183;956555;-62
2022/05/18 03:06:10;;;;;;;10.40;7.10;;;;;;;;;;759872;183;633541;-62
2022/05/18 03:08:36;;;;;;;12.83;7.40;;;;;;;;;;763895;181;631454;-62
2022/05/18 03:11:02;;;;;;;10.43;7.47;;;;;;;;;;761600;182;625052;-62
2022/05/18 03:13:28;;;;;;;10.67;7.70;;;;;;;;;;761137;182;632357;-62
2022/05/18 03:15:53;;;;;;;14.13;8.03;;;;;;;;;;761244;182;643129;-61
2022/05/18 03:18:19;;;;;;;15.70;6.60;;;;;;;;;;751784;183;623543;-62
2022/05/18 03:25:48;;;;;;;11.60;7.97;;;;;;;;;;756247;183;641167;-61
2022/05/18 03:28:14;;;;;;;12.17;7.13;;;;;;;;;;761487;184;623445;-62
2022/05/18 03:30:40;;;;;;;17.10;8.17;;;;;;;;;;762606;183;646881;-63
2022/05/18 03:33:06;;;;;;;9.83;7.37;;;;;;;;;;761443;184;633856;-62
2022/05/18 03:35:32;;;;;;;14.07;7.70;;;;;;;;;;766381;183;613959;-62
2022/05/18 03:37:57;;;;;;;17.33;8.03;;;;;;;;;;763505;183;629850;-61
2022/05/18 03:40:23;;;;;;;12.50;8.03;;;;;;;;;;759528;183;916651;-61
2022/05/18 03:42:49;;;;;;;11.87;7.50;;;;;;;;;;763114;183;914826;-61
2022/05/18 03:45:15;;;;;;;9.47;7.23;;;;;;;;;;755495;183;916632;-61
2022/05/18 03:47:42;;;;;;;30.60;7.80;;;;;;;;;;755728;184;919376;-61
2022/05/18 03:50:07;;;;;;;12.10;6.30;;;;;;;;;;764674;183;920548;-61
2022/05/18 03:52:33;;;;;;;9.33;6.60;;;;;;;;;;755267;184;920254;-61
2022/05/18 03:54:59;;;;;;;9.47;5.77;;;;;;;;;;755393;184;918656;-61
2022/05/18 03:57:24;;;;;;;11.57;7.07;;;;;;;;;;758850;183;921742;-61
2022/05/18 03:59:50;;;;;;;10.20;7.10;;;;;;;;;;767906;184;919943;-62
2022/05/18 04:02:16;;;;;;;15.63;6.70;;;;;;;;;;759287;183;920530;-61
2022/05/18 04:04:42;;;;;;;13.50;7.80;;;;;;;;;;757532;184;920602;-61
2022/05/18 04:07:08;;;;;;;20.40;7.93;;;;;;;;;;762576;183;916497;-61
2022/05/18 04:09:34;;;;;;;15.10;8.23;;;;;;;;;;756630;183;918799;-61
2022/05/18 04:12:01;;;;;;;15.43;9.07;;;;;;;;;;753326;184;917577;-61
2022/05/18 04:14:26;;;;;;;10.73;7.57;;;;;;;;;;758885;183;916245;-61
2022/05/18 04:16:52;;;;;;;13.80;8.33;;;;;;;;;;753749;183;1047118;-61
2022/05/18 04:19:18;;;;;;;15.30;9.07;;;;;;;;;;757359;183;916384;-60
2022/05/18 04:21:43;;;;;;;19.93;9.10;;;;;;;;;;759000;183;916797;-60
2022/05/18 04:24:09;;;;;;;16.43;10.13;;;;;;;;;;757081;186;919315;-60
2022/05/18 04:26:35;;;;;;;20.30;12.10;;;;;;;;;;759700;183;920855;-60
2022/05/18 04:29:01;;;;;;;19.37;12.60;;;;;;;;;;760655;183;919685;-60
2022/05/18 04:31:27;;;;;;;32.90;14.10;;;;;;;;;;766475;183;919482;-62
2022/05/18 04:33:53;;;;;;;18.77;12.10;;;;;;;;;;759312;184;920083;-60
2022/05/18 04:36:19;;;;;;;22.53;12.33;;;;;;;;;;756710;183;921430;-61
2022/05/18 04:38:44;;;;;;;18.27;12.17;;;;;;;;;;763546;184;918833;-60
2022/05/18 04:41:11;;;;;;;22.00;11.73;;;;;;;;;;754897;184;919905;-60
2022/05/18 04:43:36;;;;;;;15.93;10.83;;;;;;;;;;751522;183;939773;-61
2022/05/18 04:46:02;;;;;;;14.02;9.75;;;;;;;;;;759414;184;921352;-60
2022/05/18 04:48:31;;;;;;;15.90;8.57;;;;;;;;;;760267;183;919324;-60
2022/05/18 04:50:55;;;;;;;15.77;8.07;;;;;;;;;;759398;183;917977;-61
2022/05/18 04:53:21;;;;;;;10.73;6.70;;;;;;;;;;755437;184;1014467;-60
2022/05/18 04:55:48;;;;;;;14.00;5.90;;;;;;;;;;763217;184;917580;-61
2022/05/18 04:58:13;;;;;;;20.23;7.27;;;;;;;;;;759038;184;916532;-61
2022/05/18 05:00:39;;;;;;;7.57;4.87;;;;;;;;;;753626;186;1018733;-61
2022/05/18 05:03:04;;;;;;;12.07;5.30;;;;;;;;;;762160;184;621464;-61
2022/05/18 05:05:30;;;;;;;7.90;4.40;;;;;;;;;;759626;183;1018309;-61
2022/05/18 05:07:56;;;;;;;7.63;4.60;;;;;;;;;;759492;183;915191;-60
2022/05/18 05:10:23;;;;;;;16.35;5.07;;;;;;;;;;762990;183;920237;-60
2022/05/18 05:12:48;;;;;;;6.07;3.90;;;;;;;;;;751076;186;919862;-62
2022/05/18 05:15:14;;;;;;;6.80;3.57;;;;;;;;;;753110;184;919657;-61
2022/05/18 05:17:40;;;;;;;6.77;4.10;;;;;;;;;;752262;186;919152;-61
2022/05/18 05:20:07;;;;;;;6.90;4.43;;;;;;;;;;759934;184;919340;-61
2022/05/18 05:22:32;;;;;;;8.40;3.60;;;;;;;;;;759882;183;919551;-62
2022/05/18 05:24:58;;;;;;;8.70;3.97;;;;;;;;;;755087;183;1023740;-61
2022/05/18 05:27:24;;;;;;;10.43;4.60;;;;;;;;;;766794;184;919612;-62
2022/05/18 05:29:50;;;;;;;5.53;3.47;;;;;;;;;;760444;183;918848;-63
2022/05/18 05:32:16;;;;;;;6.63;3.23;;;;;;;;;;757902;183;919762;-63
2022/05/18 05:34:42;;;;;;;9.00;4.60;;;;;;;;;;758490;183;919519;-62
2022/05/18 05:37:08;;;;;;;9.77;4.17;;;;;;;;;;761558;183;920122;-62
2022/05/18 05:39:33;;;;;;;9.17;3.80;;;;;;;;;;758492;184;919403;-66
2022/05/18 05:41:59;;;;;;;8.27;4.30;;;;;;;;;;764889;182;919079;-62
2022/05/18 05:44:25;;;;;;;9.40;4.10;;;;;;;;;;771458;183;918843;-63
2022/05/18 05:46:51;;;;;;;9.80;5.10;;;;;;;;;;754138;186;925870;-63
2022/05/18 05:49:17;;;;;;;8.57;3.42;;;;;;;;;;753285;184;928358;-63
2022/05/18 05:51:43;;;;;;;13.00;3.47;;;;;;;;;;759860;184;918154;-63
2022/05/18 05:54:08;;;;;;;11.87;4.10;;;;;;;;;;760800;184;1022120;-63
2022/05/18 05:56:34;;;;;;;6.07;4.90;;;;;;;;;;759691;183;919432;-63
2022/05/18 05:59:00;;;;;;;17.20;3.93;;;;;;;;;;761469;183;918946;-63
2022/05/18 06:01:26;;;;;;;7.20;3.37;;;;;;;;;;752619;183;969749;-66
2022/05/18 06:03:52;;;;;;;8.80;3.90;;;;;;;;;;749855;185;920762;-64
2022/05/18 06:06:19;;;;;;;7.40;3.10;;;;;;;;;;755970;183;918911;-63
2022/05/18 06:08:44;;;;;;;8.07;4.00;;;;;;;;;;757200;184;919364;-64
2022/05/18 06:11:09;;;;;;;8.13;3.83;;;;;;;;;;756391;183;919701;-64
2022/05/18 06:13:35;;;;;;;11.70;3.73;;;;;;;;;;754612;183;918926;-64
2022/05/18 06:16:01;;;;;;;6.83;3.77;;;;;;;;;;760692;183;919741;-63
2022/05/18 06:18:27;;;;;;;7.20;4.43;;;;;;;;;;758354;183;1022043;-65
2022/05/18 06:20:53;;;;;;;7.30;3.57;;;;;;;;;;761432;183;919398;-64
2022/05/18 06:23:19;;;;;;;9.53;3.90;;;;;;;;;;765930;183;629467;-65
2022/05/18 06:25:46;;;;;;;10.60;4.40;;;;;;;;;;754719;183;919448;-64
2022/05/18 06:28:10;;;;;;;8.15;3.50;;;;;;;;;;752770;184;919370;-64
2022/05/18 06:30:36;;;;;;;10.43;3.63;;;;;;;;;;758234;184;920692;-64
2022/05/18 06:33:02;;;;;;;8.63;4.43;;;;;;;;;;758694;183;922900;-64
2022/05/18 06:35:28;;;;;;;5.90;3.72;;;;;;;;;;755903;183;920479;-65
2022/05/18 06:37:54;;;;;;;7.23;4.10;;;;;;;;;;751808;185;919077;-65
2022/05/18 06:40:20;;;;;;;8.87;4.70;;;;;;;;;;762039;183;920229;-64
2022/05/18 06:42:45;;;;;;;10.63;6.00;;;;;;;;;;753514;184;919026;-64
2022/05/18 06:45:11;;;;;;;9.27;4.80;;;;;;;;;;758958;181;919390;-66
2022/05/18 06:47:37;;;;;;;9.77;4.63;;;;;;;;;;765634;183;919597;-65
2022/05/18 06:50:03;;;;;;;13.83;3.80;;;;;;;;;;757201;183;920044;-65
2022/05/18 06:52:29;;;;;;;11.23;4.60;;;;;;;;;;760592;183;920057;-63
2022/05/18 06:54:55;;;;;;;6.80;3.80;;;;;;;;;;765870;183;919117;-65
2022/05/18 06:57:21;;;;;;;9.60;4.23;;;;;;;;;;743880;187;918023;-65
2022/05/18 06:59:47;;;;;;;10.80;4.60;;;;;;;;;;762817;183;1021626;-65
2022/05/18 07:02:13;;;;;;;7.70;4.57;;;;;;;;;;765818;183;919314;-69
2022/05/18 07:04:38;;;;;;;9.07;4.30;;;;;;;;;;769307;183;919551;-65
2022/05/18 07:07:04;;;;;;;11.80;5.33;;;;;;;;;;760963;183;1021052;-65
2022/05/18 07:09:30;;;;;;;7.93;4.13;;;;;;;;;;760089;183;919593;-65
2022/05/18 07:11:56;;;;;;;7.40;4.40;;;;;;;;;;762007;183;919431;-66
2022/05/18 07:14:23;;;;;;;13.63;4.70;;;;;;;;;;762809;184;814059;-67
2022/05/18 07:16:48;;;;;;;10.83;3.80;;;;;;;;;;762352;183;919250;-67
2022/05/18 07:19:14;;;;;;;5.80;3.90;;;;;;;;;;765750;183;905861;-67
2022/05/18 07:21:40;;;;;;;8.87;3.93;;;;;;;;;;760325;183;632175;-66
2022/05/18 07:24:06;;;;;;;8.80;4.50;;;;;;;;;;753873;184;919611;-66
2022/05/18 07:26:32;;;;;;;13.10;4.10;;;;;;;;;;755336;184;919748;-67
2022/05/18 07:28:58;;;;;;;11.13;5.10;;;;;;;;;;763959;184;915347;-68
2022/05/18 07:31:24;;;;;;;8.00;4.90;;;;;;;;;;759962;183;919681;-65
2022/05/18 07:33:50;;;;;;;10.10;6.43;;;;;;;;;;762026;183;661060;-66
2022/05/18 07:36:16;;;;;;;9.63;4.50;;;;;;;;;;761823;183;919506;-66
2022/05/18 07:38:42;;;;;;;8.37;4.30;;;;;;;;;;753362;183;919456;-67
2022/05/18 07:41:07;;;;;;;8.07;3.63;;;;;;;;;;758344;183;920832;-67
2022/05/18 07:43:33;;;;;;;10.10;4.90;;;;;;;;;;761476;183;919309;-67
2022/05/18 07:45:59;;;;;;;13.80;5.23;;;;;;;;;;759044;183;920169;-66
2022/05/18 07:48:25;;;;;;;6.75;4.30;;;;;;;;;;759246;183;919454;-67
2022/05/18 07:50:51;;;;;;;11.77;4.60;;;;;;;;;;758840;183;919014;-67
2022/05/18 07:53:17;;;;;;;8.37;3.60;;;;;;;;;;757512;185;917622;-70
2022/05/18 07:55:43;;;;;;;7.43;4.10;;;;;;;;;;763758;183;632935;-64
2022/05/18 07:58:08;;;;;;;6.37;3.90;;;;;;;;;;762852;183;632965;-67
2022/05/18 08:00:34;;;;;;;8.65;3.50;;;;;;;;;;765252;183;919677;-63
2022/05/18 08:03:00;;;;;;;9.87;3.70;;;;;;;;;;745290;187;920114;-65
2022/05/18 08:05:28;;;;;;;7.57;3.80;;;;;;;;;;757985;183;919832;-70
2022/05/18 08:07:52;;;;;;;8.10;3.57;;;;;;;;;;764924;183;919098;-66
2022/05/18 08:15:21;;;;;;;9.20;3.93;;;;;;;;;;757066;183;919769;-64
2022/05/18 08:17:48;;;;;;;5.90;3.17;;;;;;;;;;764151;184;918936;-69
2022/05/18 08:20:14;;;;;;;6.20;3.57;;;;;;;;;;757617;183;919233;-66
2022/05/18 08:22:41;;;;;;;9.20;3.60;;;;;;;;;;763069;183;629464;-68
2022/05/18 08:25:07;;;;;;;7.07;3.20;;;;;;;;;;760736;183;617661;-68
2022/05/18 08:27:33;;;;;;;10.73;4.17;;;;;;;;;;767603;184;612871;-67
2022/05/18 08:29:58;;;;;;;7.33;3.93;;;;;;;;;;751811;184;918900;-67
2022/05/18 08:32:24;;;;;;;7.10;3.90;;;;;;;;;;756464;184;919848;-67
2022/05/18 08:34:50;;;;;;;4.72;2.87;;;;;;;;;;766367;183;919290;-66
2022/05/18 08:37:16;;;;;;;13.10;3.33;;;;;;;;;;749049;185;919502;-75
2022/05/18 08:39:42;;;;;;;7.07;3.17;;;;;;;;;;755150;184;642548;-69
2022/05/18 08:42:08;;;;;;;5.90;2.63;;;;;;;;;;763201;184;622856;-70
2022/05/18 08:44:35;;;;;;;6.53;2.73;;;;;;;;;;760219;183;918832;-70
2022/05/18 08:47:02;;;;;;;11.30;2.83;;;;;;;;;;756266;184;919910;-69
2022/05/18 08:49:34;;;;;;;5.93;3.10;;;;;;;;;;760074;183;918239;-69
2022/05/18 08:52:02;;;;;;;9.93;4.00;;;;;;;;;;764331;182;921291;-70
2022/05/18 08:54:33;;;;;;;7.73;3.47;;;;;;;;;;760309;183;924413;-68
2022/05/18 08:56:59;;;;;;;5.03;2.47;;;;;;;;;;764600;183;661098;-72
2022/05/18 08:59:25;;;;;;;5.43;2.30;;;;;;;;;;760561;183;618917;-71
2022/05/18 09:01:51;;;;;;;10.27;3.10;;;;;;;;;;764749;183;626666;-70
2022/05/18 09:04:17;;;;;;;4.73;2.20;;;;;;;;;;762364;183;865895;-71
2022/05/18 09:06:44;;;;;;;8.37;2.67;;;;;;;;;;764809;182;625333;-70
2022/05/18 09:11:41;;;;;;;4.73;2.63;;;;;;;;;;767791;183;639925;-72
2022/05/18 09:14:07;;;;;;;8.13;3.50;;;;;;;;;;763790;183;619838;-71
2022/05/18 09:16:33;;;;;;;5.50;2.80;;;;;;;;;;761817;183;616886;-70
2022/05/18 09:19:05;;;;;;;5.33;2.33;;;;;;;;;;765568;183;918751;-71
2022/05/18 09:21:33;;;;;;;4.70;2.20;;;;;;;;;;762136;183;916259;-72
2022/05/18 09:24:04;;;;;;;8.02;2.00;;;;;;;;;;759472;183;916425;-70
2022/05/18 09:26:40;;;;;;;3.60;2.03;;;;;;;;;;758312;183;919819;-74
2022/05/18 09:29:06;;;;;;;5.13;3.27;;;;;;;;;;759705;183;916328;-72
2022/05/18 09:31:35;;;;;;;6.83;3.27;;;;;;;;;;756419;183;915903;-72
2022/05/18 09:34:02;;;;;;;5.93;2.60;;;;;;;;;;755925;183;916256;-70
2022/05/18 09:36:33;;;;;;;5.43;3.07;;;;;;;;;;755394;183;918894;-71
2022/05/18 09:39:03;;;;;;;5.90;2.62;;;;;;;;;;759558;183;927494;-70
2022/05/18 09:41:29;;;;;;;5.35;3.03;;;;;;;;;;766237;183;926703;-73
2022/05/18 09:43:58;;;;;;;4.90;2.60;;;;;;;;;;762946;184;633815;-72
2022/05/18 09:46:24;;;;;;;5.07;2.80;;;;;;;;;;760570;183;915493;-72
2022/05/18 09:48:54;;;;;;;4.80;2.70;;;;;;;;;;760579;184;919667;-73
2022/05/18 09:51:22;;;;;;;17.40;3.13;;;;;;;;;;762157;184;919108;-72
2022/05/18 09:53:46;;;;;;;10.48;2.55;;;;;;;;;;756024;183;919537;-76
2022/05/18 09:56:12;;;;;;;3.77;2.50;;;;;;;;;;754685;184;916038;-74
2022/05/18 09:58:38;;;;;;;5.72;2.67;;;;;;;;;;765539;183;902345;-73
2022/05/18 10:08:39;;;;;;;6.77;3.10;;;;;;;;;;764867;183;914491;-72
2022/05/18 10:11:04;;;;;;;6.07;3.27;;;;;;;;;;755771;183;918902;-75
2022/05/18 10:13:31;;;;;;;6.10;2.50;;;;;;;;;;760367;183;919054;-72
2022/05/18 10:15:59;;;;;;;9.35;2.40;;;;;;;;;;762815;183;919698;-73
2022/05/18 10:18:41;;;;;;;6.30;2.77;;;;;;;;;;767300;181;919791;-75
2022/05/18 10:21:12;;;;;;;7.63;3.17;;;;;;;;;;761420;183;918300;-74
2022/05/18 10:23:39;;;;;;;5.27;2.40;;;;;;;;;;760662;183;916614;-76
2022/05/18 10:26:04;;;;;;;4.20;1.90;;;;;;;;;;756194;183;916293;-72
2022/05/18 10:28:29;;;;;;;11.17;3.60;;;;;;;;;;762296;183;915921;-74
2022/05/18 10:30:55;;;;;;;7.23;2.20;;;;;;;;;;752345;183;911248;-73
2022/05/18 10:33:21;;;;;;;3.93;2.10;;;;;;;;;;759560;183;916635;-73
2022/05/18 10:35:48;;;;;;;4.90;2.33;;;;;;;;;;757962;183;916032;-76
2022/05/18 10:38:15;;;;;;;4.10;2.30;;;;;;;;;;761851;184;915379;-75
2022/05/18 10:40:40;;;;;;;7.00;3.00;;;;;;;;;;754776;183;928785;-74
2022/05/18 10:43:12;;;;;;;5.50;2.95;;;;;;;;;;760318;183;837248;-75
2022/05/18 10:45:38;;;;;;;5.87;2.00;;;;;;;;;;761515;184;919090;-75
2022/05/18 10:48:04;;;;;;;3.80;1.80;;;;;;;;;;757988;183;919120;-75
2022/05/18 10:50:32;;;;;;;5.17;2.77;;;;;;;;;;756054;184;918974;-75
2022/05/18 10:52:59;;;;;;;9.57;2.37;;;;;;;;;;760139;183;919491;-76
2022/05/18 10:55:23;;;;;;;4.97;2.20;;;;;;;;;;763750;183;884031;-75
2022/05/18 10:57:55;;;;;;;6.47;1.77;;;;;;;;;;760921;183;935375;-75
2022/05/18 11:00:21;;;;;;;2.87;1.90;;;;;;;;;;759041;184;919023;-75
2022/05/18 11:02:46;;;;;;;2.93;1.40;;;;;;;;;;764104;183;883127;-73
2022/05/18 11:05:12;;;;;;;4.80;1.50;;;;;;;;;;755773;183;919468;-76
2022/05/18 11:07:37;;;;;;;3.87;1.93;;;;;;;;;;759031;184;920613;-74
2022/05/18 11:10:03;;;;;;;2.93;1.57;;;;;;;;;;755362;184;919320;-79
2022/05/18 11:12:32;;;;;;;3.62;1.80;;;;;;;;;;755893;185;918440;-75
2022/05/18 11:14:58;;;;;;;14.00;4.10;;;;;;;;;;757032;183;917105;-78
2022/05/18 11:17:26;;;;;;;4.50;2.87;;;;;;;;;;751310;183;2250476;-75
2022/05/18 11:19:54;;;;;;;3.97;1.90;;;;;;;;;;761964;183;913998;-75
2022/05/18 11:22:26;;;;;;;3.63;2.10;;;;;;;;;;759597;184;919066;-79
2022/05/18 11:24:52;;;;;;;8.43;2.37;;;;;;;;;;758208;184;852402;-77
2022/05/18 11:27:20;;;;;;;5.87;2.60;;;;;;;;;;758737;183;942933;-77
2022/05/18 11:29:56;;;;;;;4.47;1.90;;;;;;;;;;756937;185;816916;-75
2022/05/18 11:32:23;;;;;;;4.00;1.77;;;;;;;;;;768450;183;928384;-78
2022/05/18 11:34:49;;;;;;;10.13;3.63;;;;;;;;;;760504;183;811842;-76
2022/05/18 11:37:27;;;;;;;4.50;2.37;;;;;;;;;;759129;183;918415;-78
2022/05/18 11:39:56;;;;;;;4.23;1.90;;;;;;;;;;761111;183;875743;-76
2022/05/18 11:42:24;;;;;;;5.10;1.93;;;;;;;;;;766590;183;917522;-76
2022/05/18 11:44:52;;;;;;;4.80;1.50;;;;;;;;;;755340;183;1123354;-80
2022/05/18 11:47:21;;;;;;;5.97;2.17;;;;;;;;;;758419;183;944463;-80
2022/05/18 11:50:00;;;;;;;8.27;1.70;;;;;;;;;;756121;184;1021666;-78
2022/05/18 11:52:29;;;;;;;6.37;1.90;;;;;;;;;;760632;183;1021719;-73
2022/05/18 11:55:13;;;;;;;6.40;2.23;;;;;;;;;;755047;187;868430;-80
2022/05/18 11:57:54;;;;;;;4.67;1.70;;;;;;;;;;763603;184;1020992;-82
2022/05/18 12:00:44;;;;;;;5.80;2.20;;;;;;;;;;764899;183;918625;-80
2022/05/18 12:02:51;;;;;;;3.47;1.80;;;;;;;;;;744118;184;1226163;-79
2022/05/18 12:05:17;;;;;;;9.18;2.30;;;;;;;;;;753279;180;958059;-78
2022/05/18 12:07:45;;;;;;;5.23;1.93;;;;;;;;;;773388;183;803772;-80
2022/05/18 12:10:15;;;;;;;3.97;1.43;;;;;;;;;;762969;180;895260;-79
2022/05/18 12:12:48;;;;;;;4.23;1.90;;;;;;;;;;769908;175;683956;-85
2022/05/18 12:15:18;;;;;;;3.80;2.07;;;;;;;;;;771167;176;773779;-81
2022/05/18 12:17:55;;;;;;;6.10;2.10;;;;;;;;;;761461;184;816875;-81
2022/05/18 12:20:40;;;;;;;6.93;2.07;;;;;;;;;;760338;183;912324;-78
2022/05/18 12:23:07;;;;;;;7.40;2.37;;;;;;;;;;759622;183;921292;-83
2022/05/18 12:25:33;;;;;;;4.33;1.73;;;;;;;;;;764714;183;827171;-78
2022/05/18 12:27:59;;;;;;;5.00;2.00;;;;;;;;;;758084;184;918791;-80
2022/05/18 12:30:25;;;;;;;3.20;1.93;;;;;;;;;;755906;184;815899;-79
2022/05/18 12:32:50;;;;;;;4.23;2.17;;;;;;;;;;767683;183;919193;-83
2022/05/18 12:35:17;;;;;;;6.17;2.83;;;;;;;;;;760975;184;757106;-76
2022/05/18 12:37:47;;;;;;;5.20;2.65;;;;;;;;;;760576;183;893810;-78
2022/05/18 12:40:30;;;;;;;5.70;2.37;;;;;;;;;;753029;184;1072568;-83
2022/05/18 12:42:56;;;;;;;4.33;2.10;;;;;;;;;;758783;182;999294;-84
2022/05/18 12:45:29;;;;;;;5.23;2.03;;;;;;;;;;773459;182;617592;-81
2022/05/18 12:48:00;;;;;;;5.97;2.30;;;;;;;;;;762204;183;912426;-82
2022/05/18 12:50:29;;;;;;;4.73;2.00;;;;;;;;;;759024;183;912686;-82
2022/05/18 12:52:55;;;;;;;5.47;2.63;;;;;;;;;;758127;183;912661;-79
2022/05/18 12:55:42;;;;;;;4.07;1.80;;;;;;;;;;764819;183;894011;-82
2022/05/18 12:58:24;;;;;;;3.70;2.03;;;;;;;;;;763255;183;667507;-86
2022/05/18 13:00:52;;;;;;;7.05;2.42;;;;;;;;;;757182;185;919010;-80
2022/05/18 13:03:19;;;;;;;10.43;2.00;;;;;;;;;;763929;183;691613;-85
2022/05/18 13:05:45;;;;;;;5.47;2.33;;;;;;;;;;753009;183;980789;-83
2022/05/18 13:08:33;;;;;;;6.53;2.72;;;;;;;;;;752402;184;856991;-85
2022/05/18 13:11:02;;;;;;;6.40;2.00;;;;;;;;;;761635;183;932060;-83
2022/05/18 13:13:28;;;;;;;5.80;4.20;;;;;;;;;;764013;183;888303;-82
2022/05/18 13:15:56;;;;;;;6.43;2.13;;;;;;;;;;761792;183;786198;-80
2022/05/18 13:18:28;;;;;;;8.27;2.13;;;;;;;;;;757526;183;918158;-83
2022/05/18 13:20:55;;;;;;;4.03;1.70;;;;;;;;;;761359;183;671043;-82
2022/05/18 13:23:24;;;;;;;3.70;1.90;;;;;;;;;;760014;183;943765;-78
2022/05/18 13:25:49;;;;;;;3.60;1.90;;;;;;;;;;758412;184;916141;-83
2022/05/18 13:28:15;;;;;;;3.97;2.50;;;;;;;;;;755262;181;919167;-78
2022/05/18 13:30:42;;;;;;;5.97;2.17;;;;;;;;;;757697;184;919054;-84
2022/05/18 13:33:09;;;;;;;6.20;2.03;;;;;;;;;;752685;185;819966;-80
2022/05/18 13:35:33;;;;;;;5.43;2.50;;;;;;;;;;737464;187;917036;-82
2022/05/18 13:38:01;;;;;;;10.23;2.70;;;;;;;;;;760695;183;892753;-86
2022/05/18 13:40:26;;;;;;;5.33;1.90;;;;;;;;;;761713;183;817317;-80
2022/05/18 13:42:52;;;;;;;3.70;2.20;;;;;;;;;;762140;183;873811;-83
2022/05/18 13:45:18;;;;;;;4.50;2.07;;;;;;;;;;760574;184;816524;-80
2022/05/18 13:47:44;;;;;;;3.90;1.60;;;;;;;;;;763937;183;920573;-82
2022/05/18 13:50:25;;;;;;;4.60;1.85;;;;;;;;;;757385;181;903374;-81
2022/05/18 13:52:51;;;;;;;4.50;2.67;;;;;;;;;;754493;182;868945;-74
2022/05/18 13:55:17;;;;;;;4.13;2.50;;;;;;;;;;763073;183;644631;-82
2022/05/18 13:57:43;;;;;;;8.13;2.00;;;;;;;;;;757676;183;1022106;-78
2022/05/18 14:00:09;;;;;;;7.23;2.53;;;;;;;;;;764915;183;637760;-84
2022/05/18 14:02:35;;;;;;;3.97;2.10;;;;;;;;;;755633;186;918247;-77
2022/05/18 14:05:01;;;;;;;5.65;1.80;;;;;;;;;;761499;182;919645;-76
2022/05/18 14:07:27;;;;;;;4.33;1.77;;;;;;;;;;772856;182;879008;-80
2022/05/18 14:09:53;;;;;;;3.83;1.70;;;;;;;;;;756045;183;816108;-78
2022/05/18 14:12:19;;;;;;;3.70;2.20;;;;;;;;;;754259;184;652527;-80
2022/05/18 14:14:45;;;;;;;5.37;2.40;;;;;;;;;;764291;184;772896;-83
2022/05/18 14:17:11;;;;;;;4.23;2.23;;;;;;;;;;760411;183;917823;-82
2022/05/18 14:19:37;;;;;;;3.73;1.87;;;;;;;;;;762364;183;813152;-83
2022/05/18 14:22:03;;;;;;;6.70;2.20;;;;;;;;;;757539;183;920978;-82
2022/05/18 14:24:32;;;;;;;4.83;1.87;;;;;;;;;;758897;184;628754;-80
2022/05/18 14:26:54;;;;;;;4.73;2.27;;;;;;;;;;761731;183;875176;-81
2022/05/18 14:29:25;;;;;;;3.23;1.90;;;;;;;;;;759833;183;830313;-78
2022/05/18 14:31:50;;;;;;;5.73;2.80;;;;;;;;;;763545;184;618031;-81
2022/05/18 14:34:16;;;;;;;3.00;1.73;;;;;;;;;;761759;183;643346;-78
2022/05/18 14:36:45;;;;;;;9.27;2.10;;;;;;;;;;758405;183;740186;-77
2022/05/18 14:39:26;;;;;;;4.33;2.10;;;;;;;;;;758825;183;815804;-83
2022/05/18 14:41:51;;;;;;;4.70;2.37;;;;;;;;;;750840;184;635355;-75
2022/05/18 14:44:17;;;;;;;3.43;1.90;;;;;;;;;;743074;184;907196;-80